Time;durP1;ratioP1;P1;durP2;ratioP2;P2;SDS_P1;SDS_P2;PMS_P1;PMS_P2;Temp;Humidity;BMP_temperature;BMP_pressure;BME280_temperature;BME280_humidity;BME280_pressure;Samples;Min_cycle;Max_cycle;Signal;HPM_P1;HPM_P2
2021/10/26 04:31:14;;;;;;;;;;;;;;;2.47;100.00;100119.75;5645094;23;19934;-84
2021/10/26 04:33:40;;;;;;;;;;;;;;;2.41;100.00;100123.28;5005719;28;20012;-83
2021/10/26 04:36:05;;;;;;;;;;;;;;;2.36;100.00;100125.00;5003147;28;19932;-82
2021/10/26 04:38:31;;;;;;;;;;;;;;;2.30;100.00;100130.28;5003037;28;19925;-83
2021/10/26 04:41:01;;;;;;;;;;;;;;;2.28;100.00;100130.28;5003406;28;20291;-82
2021/10/26 04:43:27;;;;;;;;;;;;;;;2.25;100.00;100129.41;5002975;28;19921;-83
2021/10/26 04:45:53;;;;;;;;;;;;;;;2.12;100.00;100134.69;5003046;28;19963;-83
2021/10/26 04:48:19;;;;;;;;;;;;;;;2.13;100.00;100138.19;5003928;28;19925;-83
2021/10/26 04:50:45;;;;;;;;;;;;;;;2.07;99.91;100138.19;5002294;28;19918;-82
2021/10/26 04:53:10;;;;;;;;;;;;;;;1.97;99.77;100139.97;5004090;28;19921;-82
2021/10/26 04:55:35;;;;;;;;;;;;;;;2.02;100.00;100135.59;5003763;28;19925;-83
2021/10/26 04:58:00;;;;;;;;;;;;;;;2.18;100.00;100139.88;5003686;28;20288;-84
2021/10/26 05:00:28;;;;;;;;;;;;;;;2.16;100.00;100139.03;5002965;28;20365;-83
2021/10/26 05:02:54;;;;;;;;;;;;;;;2.01;100.00;100141.69;5003944;28;19972;-84
2021/10/26 05:05:20;;;;;;;;;;;;;;;1.96;100.00;100144.31;5004203;28;19956;-83
2021/10/26 05:07:45;;;;;;;;;;;;;;;1.98;100.00;100141.72;5003513;28;19918;-84
2021/10/26 05:10:10;;;;;;;;;;;;;;;1.90;100.00;100149.56;5003424;28;19921;-83
2021/10/26 05:12:36;;;;;;;;;;;;;;;1.85;100.00;100148.69;5003709;28;20428;-85
2021/10/26 05:15:01;;;;;;;;;;;;;;;1.79;100.00;100156.53;5001502;28;20013;-86
2021/10/26 05:17:28;;;;;;;;;;;;;;;1.76;100.00;100146.09;5002627;28;20004;-85
2021/10/26 05:19:54;;;;;;;;;;;;;;;1.69;100.00;100152.19;5002241;28;19975;-83
2021/10/26 05:22:21;;;;;;;;;;;;;;;1.59;100.00;100153.94;5003831;28;20369;-84
2021/10/26 05:24:47;;;;;;;;;;;;;;;1.54;100.00;100153.94;5003695;28;20507;-83
2021/10/26 05:27:12;;;;;;;;;;;;;;;1.48;100.00;100151.31;5003357;28;19935;-84
2021/10/26 05:29:38;;;;;;;;;;;;;;;1.40;99.93;100153.94;5003087;28;20319;-83
2021/10/26 05:32:04;;;;;;;;;;;;;;;1.40;99.50;100156.53;5001742;28;19930;-83
2021/10/26 05:34:29;;;;;;;;;;;;;;;1.37;99.17;100168.72;5003536;28;19926;-84
2021/10/26 05:36:54;;;;;;;;;;;;;;;1.32;98.79;100170.47;5003301;28;19922;-82
2021/10/26 05:39:19;;;;;;;;;;;;;;;1.55;100.00;100163.53;5003535;28;20008;-83
2021/10/26 05:41:48;;;;;;;;;;;;;;;1.84;100.00;100165.25;5003137;28;19924;-84
2021/10/26 05:44:13;;;;;;;;;;;;;;;1.77;100.00;100161.78;5003302;28;19996;-84
2021/10/26 05:46:38;;;;;;;;;;;;;;;1.65;100.00;100166.13;5000596;28;20001;-84
2021/10/26 05:49:04;;;;;;;;;;;;;;;1.71;100.00;100166.09;5002696;28;20331;-83
2021/10/26 05:51:29;;;;;;;;;;;;;;;1.66;100.00;100168.75;5002523;28;19960;-84
2021/10/26 05:53:55;;;;;;;;;;;;;;;1.51;100.00;100161.78;5002806;28;20442;-84
2021/10/26 05:56:20;;;;;;;;;;;;;;;1.49;100.00;100163.53;5002400;28;19944;-83
2021/10/26 05:58:45;;;;;;;;;;;;;;;1.41;100.00;100166.13;5002700;28;19917;-84
2021/10/26 06:01:10;;;;;;;;;;;;;;;1.37;100.00;100166.13;5001552;28;20449;-83
2021/10/26 06:03:36;;;;;;;;;;;;;;;1.27;100.00;100173.94;5002841;28;20012;-83
2021/10/26 06:06:02;;;;;;;;;;;;;;;1.23;100.00;100172.22;5002496;28;19921;-83
2021/10/26 06:08:28;;;;;;;;;;;;;;;1.18;100.00;100173.94;5002565;28;19922;-83
2021/10/26 06:11:01;;;;;;;;;;;;;;;1.13;100.00;100178.25;5002408;28;20353;-83
2021/10/26 06:13:30;;;;;;;;;;;;;;;1.03;100.00;100180.00;5002405;28;19929;-83
2021/10/26 06:15:55;;;;;;;;;;;;;;;1.01;100.00;100188.69;5001507;28;20360;-83
2021/10/26 06:18:21;;;;;;;;;;;;;;;0.93;100.00;100191.28;5002350;28;19928;-83
2021/10/26 06:20:46;;;;;;;;;;;;;;;0.92;100.00;100191.28;5002244;28;19922;-83
2021/10/26 06:23:12;;;;;;;;;;;;;;;0.88;99.78;100193.88;5003061;28;19979;-83
2021/10/26 06:25:37;;;;;;;;;;;;;;;0.81;99.32;100210.38;5002523;28;19941;-83
2021/10/26 06:28:02;;;;;;;;;;;;;;;0.81;99.11;100210.38;5002205;28;20300;-83
2021/10/26 06:30:27;;;;;;;;;;;;;;;0.76;99.08;100212.09;5001057;28;19918;-83
2021/10/26 06:32:53;;;;;;;;;;;;;;;0.69;98.55;100220.78;5002746;28;19925;-83
2021/10/26 06:35:18;;;;;;;;;;;;;;;0.72;98.27;100223.41;5002564;28;19973;-83
2021/10/26 06:37:44;;;;;;;;;;;;;;;0.68;97.98;100226.84;5000702;28;19992;-84
2021/10/26 06:40:12;;;;;;;;;;;;;;;0.70;97.73;100226.00;5002829;28;19917;-83
2021/10/26 06:42:38;;;;;;;;;;;;;;;0.57;97.39;100225.91;5002152;28;19918;-83
2021/10/26 06:45:03;;;;;;;;;;;;;;;0.55;97.60;100231.13;5000627;28;20314;-83
2021/10/26 06:47:29;;;;;;;;;;;;;;;0.97;99.62;100226.09;5002091;28;19918;-83
2021/10/26 06:49:54;;;;;;;;;;;;;;;1.16;100.00;100233.09;5002700;28;19925;-83
2021/10/26 06:52:19;;;;;;;;;;;;;;;1.23;100.00;100234.88;5002349;28;19918;-82
2021/10/26 06:54:45;;;;;;;;;;;;;;;1.29;100.00;100238.34;5001843;28;19928;-83
2021/10/26 06:57:10;;;;;;;;;;;;;;;1.92;100.00;100241.03;5002357;28;19945;-83
2021/10/26 06:59:36;;;;;;;;;;;;;;;2.27;100.00;100243.59;5005264;28;19928;-83
2021/10/26 07:02:02;;;;;;;;;;;;;;;2.45;100.00;100247.06;5004683;28;20369;-83
2021/10/26 07:04:28;;;;;;;;;;;;;;;2.62;100.00;100254.88;5005731;28;20016;-83
2021/10/26 07:06:53;;;;;;;;;;;;;;;2.70;100.00;100245.25;5006490;28;20028;-83
2021/10/26 07:09:18;;;;;;;;;;;;;;;2.76;100.00;100240.00;5004642;28;19917;-84
2021/10/26 07:11:43;;;;;;;;;;;;;;;2.83;100.00;100251.31;5006238;28;19929;-84
2021/10/26 07:14:09;;;;;;;;;;;;;;;2.87;100.00;100255.63;5005476;28;19921;-84
2021/10/26 07:16:34;;;;;;;;;;;;;;;2.88;100.00;100258.25;5004675;28;20284;-84
2021/10/26 07:18:59;;;;;;;;;;;;;;;2.97;100.00;100261.69;5004607;28;19959;-84
2021/10/26 07:21:25;;;;;;;;;;;;;;;3.02;100.00;100263.44;5005473;28;19941;-84
2021/10/26 08:02:49;;;;;;;;;;;;;;;3.54;100.00;100316.44;4982003;28;19933;-83
2021/10/26 08:05:15;;;;;;;;;;;;;;;3.55;100.00;100321.66;4983098;28;19929;-83
2021/10/26 08:07:40;;;;;;;;;;;;;;;3.63;100.00;100319.00;4984762;28;20000;-82
2021/10/26 08:10:06;;;;;;;;;;;;;;;3.64;100.00;100318.13;4982425;28;20014;-83
2021/10/26 08:12:31;;;;;;;;;;;;;;;3.69;100.00;100320.75;4982693;28;19961;-82
2021/10/26 08:14:56;;;;;;;;;;;;;;;3.71;100.00;100330.31;4983330;28;19923;-83
2021/10/26 08:17:22;;;;;;;;;;;;;;;3.73;100.00;100325.06;4984563;28;19925;-82
2021/10/26 08:19:48;;;;;;;;;;;;;;;3.76;100.00;100323.28;4985427;28;20075;-83
2021/10/26 08:22:16;;;;;;;;;;;;;;;3.81;100.00;100326.78;4985166;28;19922;-82
2021/10/26 08:24:43;;;;;;;;;;;;;;;3.84;100.00;100330.25;4982293;28;19922;-83
2021/10/26 08:27:10;;;;;;;;;;;;;;;3.89;100.00;100323.22;4984489;28;19945;-83
2021/10/26 08:30:08;;;;;;;;;;;;;;;3.90;100.00;100317.97;4982867;28;19922;-82
2021/10/26 08:34:53;;;;;;;;;;;;;;;3.98;100.00;100312.66;4982249;28;19922;-83
2021/10/26 08:37:18;;;;;;;;;;;;;;;4.00;100.00;100322.28;4983724;28;19960;-82
2021/10/26 08:39:43;;;;;;;;;;;;;;;4.07;100.00;100319.56;4984076;28;19969;-83
2021/10/26 08:42:10;;;;;;;;;;;;;;;4.10;100.00;100323.06;4984878;28;20357;-83
2021/10/26 08:44:36;;;;;;;;;;;;;;;4.18;100.00;100320.38;4981967;28;20053;-82
2021/10/26 08:47:01;;;;;;;;;;;;;;;4.21;100.00;100319.47;4982047;28;20461;-82
2021/10/26 08:49:26;;;;;;;;;;;;;;;4.24;100.00;100314.19;4981386;28;20263;-82
2021/10/26 08:51:52;;;;;;;;;;;;;;;4.48;100.00;100314.00;4981874;28;19922;-83
2021/10/26 08:54:20;;;;;;;;;;;;;;;6.30;100.00;100305.47;4982414;28;21399;-81
2021/10/26 08:56:48;;;;;;;;;;;;;;;5.64;100.00;100295.06;4983803;28;20320;-82
2021/10/26 08:59:17;;;;;;;;;;;;;;;7.24;100.00;100306.34;4981999;28;19993;-82
2021/10/26 09:01:45;;;;;;;;;;;;;;;8.56;100.00;100298.91;4981027;28;19922;-81
2021/10/26 09:04:11;;;;;;;;;;;;;;;10.60;100.00;100291.81;4983737;28;19930;-83
2021/10/26 09:06:46;;;;;;;;;;;;;;;9.08;100.00;100297.47;4983887;28;19964;-85
2021/10/26 09:09:13;;;;;;;;;;;;;;;6.70;100.00;100308.28;4983108;28;19929;-85
2021/10/26 09:16:40;;;;;;;;;;;;;;;5.12;100.00;100311.53;4981771;28;20447;-84
2021/10/26 09:17:18;;;;;;;;;;;;;;;4.16;100.00;100311.63;4982437;28;19929;-84
2021/10/26 09:19:44;;;;;;;;;;;;;;;3.92;100.00;100320.56;4982504;28;19922;-84
2021/10/26 09:22:09;;;;;;;;;;;;;;;3.70;100.00;100312.88;4983521;28;19918;-83
2021/10/26 09:24:35;;;;;;;;;;;;;;;3.61;100.00;100315.53;4982832;28;19918;-84
2021/10/26 09:27:01;;;;;;;;;;;;;;;3.47;99.39;100319.97;4981581;28;20016;-83
2021/10/26 09:29:27;;;;;;;;;;;;;;;3.37;98.39;100319.16;4982899;28;19953;-83
2021/10/26 09:32:01;;;;;;;;;;;;;;;3.28;97.36;100320.91;4982955;28;20015;-82
2021/10/26 09:34:26;;;;;;;;;;;;;;;3.23;96.76;100316.59;4983306;28;19944;-82
2021/10/26 09:36:52;;;;;;;;;;;;;;;3.19;95.72;100317.47;4980313;28;20385;-81
2021/10/26 09:39:22;;;;;;;;;;;;;;;3.10;95.55;100318.41;4981871;28;20021;-82
2021/10/26 09:41:51;;;;;;;;;;;;;;;3.08;94.49;100328.03;4983306;28;20370;-82
2021/10/26 09:44:17;;;;;;;;;;;;;;;3.01;94.18;100321.03;4981186;28;19980;-82
2021/10/26 09:46:53;;;;;;;;;;;;;;;2.92;94.22;100327.19;4982262;28;19918;-82
2021/10/26 09:49:19;;;;;;;;;;;;;;;2.89;94.30;100324.59;4981918;28;19926;-82
2021/10/26 09:51:45;;;;;;;;;;;;;;;2.89;93.99;100327.19;4983041;28;19961;-84
2021/10/26 09:54:15;;;;;;;;;;;;;;;2.91;94.20;100330.69;4982352;28;19957;-83
2021/10/26 09:56:40;;;;;;;;;;;;;;;2.89;94.54;100329.81;4981630;28;20392;-84
2021/10/26 09:59:13;;;;;;;;;;;;;;;2.91;94.00;100339.38;4983598;28;19918;-83
2021/10/26 10:01:50;;;;;;;;;;;;;;;2.93;94.06;100341.16;4979446;28;19922;-84
2021/10/26 10:04:22;;;;;;;;;;;;;;;2.81;93.89;100328.94;4982044;28;20020;-81
2021/10/26 10:06:50;;;;;;;;;;;;;;;2.76;94.06;100325.47;4978430;28;19925;-82
2021/10/26 10:09:23;;;;;;;;;;;;;;;2.79;94.13;100325.47;4997952;28;19992;-84
2021/10/26 10:12:19;;;;;;;;;;;;;;;2.82;93.87;100328.06;4981125;28;19925;-83
2021/10/26 10:14:49;;;;;;;;;;;;;;;2.75;93.60;100332.47;4977800;28;19934;-83
2021/10/26 10:17:14;;;;;;;;;;;;;;;2.79;93.32;100330.69;4979810;28;19926;-82
2021/10/26 10:19:40;;;;;;;;;;;;;;;2.70;93.27;100322.00;4981210;28;19925;-81
2021/10/26 10:22:07;;;;;;;;;;;;;;;2.80;92.86;100322.00;4981469;28;19918;-84
2021/10/26 10:24:38;;;;;;;;;;;;;;;2.67;92.84;100321.16;4980473;28;19926;-81
2021/10/26 10:27:04;;;;;;;;;;;;;;;2.72;92.92;100314.16;4981571;28;19973;-81
2021/10/26 10:29:30;;;;;;;;;;;;;;;2.72;92.53;100314.16;4979626;28;19918;-83
2021/10/26 10:31:55;;;;;;;;;;;;;;;2.65;92.57;100317.63;4980355;28;19937;-81
2021/10/26 10:34:22;;;;;;;;;;;;;;;2.64;92.43;100324.63;4981513;28;19926;-84
2021/10/26 10:36:48;;;;;;;;;;;;;;;2.76;92.16;100312.38;4981420;28;19922;-84
2021/10/26 10:39:14;;;;;;;;;;;;;;;2.68;92.16;100309.78;4981504;28;20370;-83
2021/10/26 10:41:41;;;;;;;;;;;;;;;2.70;92.64;100310.69;4977958;28;19926;-82
2021/10/26 10:44:28;;;;;;;;;;;;;;;2.75;92.29;100313.28;4978717;28;19926;-82
2021/10/26 10:47:00;;;;;;;;;;;;;;;2.68;92.22;100318.53;4981141;28;19915;-82
2021/10/26 10:49:27;;;;;;;;;;;;;;;2.69;91.87;100316.78;4980232;28;19922;-81
2021/10/26 10:51:56;;;;;;;;;;;;;;;2.69;91.87;100311.53;4977371;28;20012;-81
2021/10/26 10:54:37;;;;;;;;;;;;;;;2.68;91.97;100322.88;4982753;28;19922;-82
2021/10/26 10:57:18;;;;;;;;;;;;;;;2.61;91.66;100322.00;4996746;28;19913;-81
2021/10/26 10:59:46;;;;;;;;;;;;;;;2.62;91.90;100321.16;4980217;28;19921;-82
2021/10/26 11:02:27;;;;;;;;;;;;;;;2.64;91.50;100327.25;4976084;28;20372;-83
2021/10/26 11:04:54;;;;;;;;;;;;;;;2.68;91.17;100328.09;4989553;28;19918;-83
2021/10/26 11:07:38;;;;;;;;;;;;;;;2.72;91.17;100330.72;4991881;28;19965;-82
2021/10/26 11:10:03;;;;;;;;;;;;;;;2.70;90.77;100329.00;4973049;28;19928;-81
2021/10/26 11:12:30;;;;;;;;;;;;;;;2.70;90.96;100323.75;4974207;28;19922;-81
2021/10/26 11:14:58;;;;;;;;;;;;;;;2.69;90.75;100325.47;4991189;28;20013;-83
2021/10/26 11:17:36;;;;;;;;;;;;;;;2.79;91.04;100320.22;4981742;28;19922;-82
2021/10/26 11:20:08;;;;;;;;;;;;;;;2.75;90.79;100318.50;4973467;28;19968;-81
2021/10/26 11:22:53;;;;;;;;;;;;;;;2.71;90.56;100315.91;4992376;28;20273;-84
2021/10/26 11:25:27;;;;;;;;;;;;;;;2.70;90.73;100322.00;4974283;28;19984;-81
2021/10/26 11:27:53;;;;;;;;;;;;;;;2.73;90.72;100326.38;4983219;28;20308;-82
2021/10/26 11:30:28;;;;;;;;;;;;;;;2.66;91.13;100325.47;4972716;28;19964;-81
2021/10/26 11:33:23;;;;;;;;;;;;;;;2.68;91.22;100329.00;4981111;28;20296;-84
2021/10/26 11:35:49;;;;;;;;;;;;;;;2.71;91.04;100321.13;4978323;28;19925;-82
2021/10/26 11:38:19;;;;;;;;;;;;;;;2.77;91.30;100327.22;4982323;28;19929;-82
2021/10/26 11:41:08;;;;;;;;;;;;;;;2.70;91.29;100327.22;4973904;28;19926;-81
2021/10/26 11:43:43;;;;;;;;;;;;;;;2.72;91.07;100325.47;4983286;28;19922;-84
2021/10/26 11:46:10;;;;;;;;;;;;;;;2.70;91.30;100329.84;4975334;28;19973;-82
2021/10/26 11:48:48;;;;;;;;;;;;;;;2.75;91.54;100328.97;4977503;28;19925;-82
2021/10/26 11:51:27;;;;;;;;;;;;;;;2.76;91.26;100325.47;4995153;28;19922;-82
2021/10/26 11:53:59;;;;;;;;;;;;;;;2.75;90.84;100318.50;4989821;28;19917;-82
2021/10/26 11:56:26;;;;;;;;;;;;;;;2.80;90.86;100319.38;4994767;28;19926;-82
2021/10/26 11:58:55;;;;;;;;;;;;;;;2.80;90.73;100316.75;4985514;28;19922;-81
2021/10/26 12:01:21;;;;;;;;;;;;;;;2.79;90.37;100325.47;4989265;28;20015;-81
2021/10/26 12:03:47;;;;;;;;;;;;;;;2.71;90.36;100323.75;4980451;28;19922;-81
2021/10/26 12:06:13;;;;;;;;;;;;;;;2.71;89.98;100313.28;4983418;28;19948;-82
2021/10/26 12:08:39;;;;;;;;;;;;;;;2.76;90.11;100312.38;4984169;28;19922;-84
2021/10/26 12:11:05;;;;;;;;;;;;;;;2.68;89.86;100313.28;4983995;28;20361;-81
2021/10/26 12:13:30;;;;;;;;;;;;;;;2.66;89.85;100304.56;4983073;28;20031;-83
2021/10/26 12:15:56;;;;;;;;;;;;;;;2.65;89.79;100308.06;4984031;28;20385;-81
2021/10/26 12:18:32;;;;;;;;;;;;;;;2.66;89.64;100315.00;4984065;28;20017;-81
2021/10/26 12:21:03;;;;;;;;;;;;;;;2.72;89.95;100316.75;4983675;28;19964;-84
2021/10/26 12:23:29;;;;;;;;;;;;;;;2.75;89.68;100313.28;4982845;28;19926;-83
2021/10/26 12:25:57;;;;;;;;;;;;;;;2.73;89.80;100311.53;4977663;28;19976;-84
2021/10/26 12:28:24;;;;;;;;;;;;;;;2.77;89.50;100307.16;4983831;28;19922;-81
2021/10/26 12:30:50;;;;;;;;;;;;;;;2.72;89.33;100299.31;4974364;28;19921;-81
2021/10/26 12:33:23;;;;;;;;;;;;;;;2.71;89.32;100308.06;4982411;28;20348;-81
2021/10/26 12:35:52;;;;;;;;;;;;;;;2.74;89.28;100296.69;4981137;28;19922;-81
2021/10/26 12:38:29;;;;;;;;;;;;;;;2.69;89.21;100291.47;4978950;28;20370;-82
2021/10/26 12:41:03;;;;;;;;;;;;;;;2.86;89.65;100290.56;4983333;28;20404;-83
2021/10/26 12:43:28;;;;;;;;;;;;;;;2.79;88.84;100304.53;4980564;28;19923;-82
2021/10/26 12:45:55;;;;;;;;;;;;;;;2.80;89.13;100303.66;4982482;28;20020;-81
2021/10/26 12:48:24;;;;;;;;;;;;;;;2.97;89.84;100299.25;4982674;28;19922;-82
2021/10/26 12:50:52;;;;;;;;;;;;;;;2.95;91.46;100305.34;4984406;28;19925;-84
2021/10/26 12:53:17;;;;;;;;;;;;;;;2.96;95.17;100297.50;4983880;28;19961;-82
2021/10/26 12:55:54;;;;;;;;;;;;;;;3.33;100.00;100296.47;4981616;28;19989;-83
2021/10/26 12:58:34;;;;;;;;;;;;;;;3.82;100.00;100293.53;4994235;28;19918;-82
2021/10/26 13:01:04;;;;;;;;;;;;;;;4.11;100.00;100290.69;4984227;28;19928;-83
2021/10/26 13:03:29;;;;;;;;;;;;;;;4.28;100.00;100294.94;4970865;28;19926;-82
2021/10/26 13:05:55;;;;;;;;;;;;;;;4.38;100.00;100296.59;4993464;28;19992;-81
2021/10/26 13:08:21;;;;;;;;;;;;;;;4.49;100.00;100294.72;4973582;28;19917;-80
2021/10/26 13:10:47;;;;;;;;;;;;;;;4.57;100.00;100296.41;4992572;28;20377;-81
2021/10/26 13:13:14;;;;;;;;;;;;;;;4.63;100.00;100291.09;4983835;28;19922;-80
2021/10/26 13:15:43;;;;;;;;;;;;;;;4.71;100.00;100292.75;4969623;28;19925;-83
2021/10/26 13:18:11;;;;;;;;;;;;;;;4.76;100.00;100292.72;4974180;28;19925;-82
2021/10/26 13:20:41;;;;;;;;;;;;;;;4.95;100.00;100292.50;4993519;28;19918;-82
2021/10/26 13:23:10;;;;;;;;;;;;;;;5.21;100.00;100295.66;4974898;28;20328;-84
2021/10/26 13:25:36;;;;;;;;;;;;;;;5.52;100.00;100292.66;4975190;28;19925;-82
2021/10/26 13:28:03;;;;;;;;;;;;;;;5.67;100.00;100293.31;4974223;28;19925;-82
2021/10/26 13:30:30;;;;;;;;;;;;;;;5.79;100.00;100296.63;4990781;28;19922;-81
2021/10/26 13:32:56;;;;;;;;;;;;;;;5.86;100.00;100299.16;4993132;28;20681;-84
2021/10/26 13:35:22;;;;;;;;;;;;;;;6.05;100.00;100299.75;4993032;28;19926;-85
2021/10/26 13:37:47;;;;;;;;;;;;;;;6.08;100.00;100307.59;4993726;28;19918;-81
2021/10/26 13:40:12;;;;;;;;;;;;;;;6.20;100.00;100310.03;4992987;28;19917;-83
2021/10/26 13:42:38;;;;;;;;;;;;;;;6.26;100.00;100314.34;4993072;28;20043;-81
2021/10/26 13:45:05;;;;;;;;;;;;;;;6.30;100.00;100318.66;4974329;28;19925;-82
2021/10/26 13:47:30;;;;;;;;;;;;;;;6.36;100.00;100319.41;4974877;28;19957;-82
2021/10/26 13:49:56;;;;;;;;;;;;;;;6.40;100.00;100328.13;4992044;28;20019;-82
2021/10/26 13:52:21;;;;;;;;;;;;;;;6.40;100.00;100324.63;4992209;28;19925;-81
2021/10/26 13:54:46;;;;;;;;;;;;;;;6.46;100.00;100320.13;4992168;28;19976;-82
2021/10/26 13:57:12;;;;;;;;;;;;;;;6.51;100.00;100314.75;4974533;28;20025;-81
2021/10/26 13:59:38;;;;;;;;;;;;;;;6.62;100.00;100322.47;4973839;28;20447;-84
2021/10/26 14:02:03;;;;;;;;;;;;;;;6.64;100.00;100325.97;4985278;28;20025;-82
2021/10/26 14:04:28;;;;;;;;;;;;;;;6.66;100.00;100319.75;4983316;28;19989;-82
2021/10/26 14:06:54;;;;;;;;;;;;;;;6.68;100.00;100325.88;4983118;28;19953;-83
2021/10/26 14:09:19;;;;;;;;;;;;;;;6.75;100.00;100315.22;4983218;28;19918;-83
2021/10/26 14:11:44;;;;;;;;;;;;;;;6.77;100.00;100319.56;4979437;28;19922;-82
2021/10/26 14:14:09;;;;;;;;;;;;;;;6.84;100.00;100325.59;4977380;28;19918;-83
2021/10/26 14:16:35;;;;;;;;;;;;;;;6.85;100.00;100317.66;4976242;28;20764;-81
2021/10/26 14:19:01;;;;;;;;;;;;;;;6.88;100.00;100330.78;4975673;28;19918;-83
2021/10/26 14:21:28;;;;;;;;;;;;;;;6.91;100.00;100330.72;4981279;28;19957;-83
2021/10/26 14:23:53;;;;;;;;;;;;;;;6.94;100.00;100327.16;4977904;28;20341;-82
2021/10/26 14:26:19;;;;;;;;;;;;;;;6.93;100.00;100327.19;4981236;28;19932;-81
2021/10/26 14:28:44;;;;;;;;;;;;;;;5.49;100.00;100332.13;4974183;28;19918;-82
2021/10/26 14:31:09;;;;;;;;;;;;;;;4.63;100.00;100339.22;4972536;28;19929;-83
2021/10/26 14:33:36;;;;;;;;;;;;;;;4.22;100.00;100342.22;4981516;28;20008;-81
2021/10/26 14:36:41;;;;;;;;;;;;;;;3.99;100.00;100340.63;4982616;28;19922;-81
2021/10/26 14:39:12;;;;;;;;;;;;;;;3.74;100.00;100332.06;4974959;28;19930;-82
2021/10/26 14:52:52;;;;;;;;;;;;;;;3.40;100.00;100345.34;4979297;28;20004;-83
2021/10/26 14:57:46;;;;;;;;;;;;;;;3.32;100.00;100353.22;4981396;28;20061;-80
2021/10/26 15:00:11;;;;;;;;;;;;;;;3.30;100.00;100354.97;4979296;28;20020;-82
2021/10/26 15:02:36;;;;;;;;;;;;;;;3.17;100.00;100366.38;4989280;28;19921;-84
2021/10/26 15:05:02;;;;;;;;;;;;;;;3.21;100.00;100358.50;4973989;28;19926;-82
2021/10/26 15:07:27;;;;;;;;;;;;;;;3.19;100.00;100375.09;4986997;28;19922;-84
2021/10/26 15:09:57;;;;;;;;;;;;;;;3.17;99.82;100372.47;4991561;28;19941;-81
2021/10/26 15:12:36;;;;;;;;;;;;;;;3.15;99.00;100381.22;4972721;28;19952;-81
2021/10/26 15:15:03;;;;;;;;;;;;;;;3.05;98.49;100386.50;4981102;28;19976;-82
2021/10/26 15:17:30;;;;;;;;;;;;;;;3.11;98.09;100382.09;4981232;28;20396;-83
2021/10/26 15:20:00;;;;;;;;;;;;;;;2.97;97.39;100382.13;4967115;28;20528;-82
2021/10/26 15:35:35;;;;;;;;;;;;;;;2.68;94.32;100391.78;4984927;28;19933;-81
2021/10/26 15:38:01;;;;;;;;;;;;;;;2.66;93.95;100388.28;4979617;28;19918;-81
2021/10/26 15:40:26;;;;;;;;;;;;;;;2.64;93.67;100392.66;4985225;28;20506;-81
2021/10/26 15:42:51;;;;;;;;;;;;;;;2.59;93.28;100394.41;4964369;28;19940;-82
2021/10/26 15:45:16;;;;;;;;;;;;;;;2.54;93.26;100396.16;4981103;28;19969;-81
2021/10/26 15:47:42;;;;;;;;;;;;;;;2.47;93.24;100402.25;4961541;28;19922;-81
2021/10/26 15:50:09;;;;;;;;;;;;;;;2.43;93.03;100405.75;4968485;28;19922;-81
2021/10/26 15:52:35;;;;;;;;;;;;;;;2.42;93.14;100399.63;4968055;28;20422;-82
2021/10/26 15:55:01;;;;;;;;;;;;;;;2.37;92.87;100396.16;4968243;28;19918;-82
2021/10/26 15:57:29;;;;;;;;;;;;;;;2.38;92.35;100404.88;4968247;28;19921;-81
2021/10/26 15:59:55;;;;;;;;;;;;;;;2.35;92.12;100404.00;4983799;28;20328;-82
2021/10/26 16:02:20;;;;;;;;;;;;;;;2.29;92.24;100393.53;4985074;28;19922;-81
2021/10/26 16:04:46;;;;;;;;;;;;;;;2.25;92.24;100397.03;4967803;28;19922;-85
2021/10/26 16:07:11;;;;;;;;;;;;;;;2.30;92.07;100397.91;4985257;28;19918;-83
2021/10/26 16:12:29;;;;;;;;;;;;;;;2.27;91.69;100410.13;4973869;28;19921;-81
2021/10/26 16:17:29;;;;;;;;;;;;;;;2.25;91.95;100411.81;4983657;28;20404;-82
2021/10/26 16:19:55;;;;;;;;;;;;;;;2.12;91.26;100414.44;4964783;28;20478;-81
2021/10/26 16:22:20;;;;;;;;;;;;;;;2.11;91.10;100414.44;4962782;28;19922;-80
2021/10/26 16:24:45;;;;;;;;;;;;;;;2.11;91.04;100407.47;4967615;28;19928;-82
2021/10/26 16:27:11;;;;;;;;;;;;;;;2.04;90.87;100417.91;4983269;28;19990;-84
2021/10/26 16:29:37;;;;;;;;;;;;;;;1.92;91.07;100417.00;4982166;28;19930;-81
2021/10/26 16:32:05;;;;;;;;;;;;;;;2.05;90.86;100417.03;4980190;28;19925;-81
2021/10/26 16:34:31;;;;;;;;;;;;;;;1.96;90.36;100421.38;4984723;28;19918;-82
2021/10/26 16:36:59;;;;;;;;;;;;;;;1.93;90.55;100421.38;4967190;28;19973;-81
2021/10/26 16:39:24;;;;;;;;;;;;;;;2.00;90.59;100423.13;4963535;28;19926;-81
2021/10/26 16:41:50;;;;;;;;;;;;;;;1.91;90.31;100417.00;4984484;28;19976;-81
2021/10/26 16:44:37;;;;;;;;;;;;;;;1.89;89.99;100423.97;4984453;28;19918;-81
2021/10/26 16:47:13;;;;;;;;;;;;;;;1.85;89.85;100419.59;4967521;28;20326;-81
2021/10/26 16:49:39;;;;;;;;;;;;;;;1.81;89.62;100423.94;4966864;28;19922;-84
2021/10/26 16:52:05;;;;;;;;;;;;;;;1.81;89.67;100427.44;4966932;28;19914;-82
2021/10/26 16:54:31;;;;;;;;;;;;;;;1.76;89.42;100428.28;4984121;28;19922;-81
2021/10/26 16:56:56;;;;;;;;;;;;;;;1.75;89.12;100426.53;4984430;28;20006;-81
2021/10/26 16:59:21;;;;;;;;;;;;;;;1.71;89.19;100440.44;4967043;28;20005;-83
2021/10/26 17:01:47;;;;;;;;;;;;;;;1.73;89.08;100441.34;4965136;28;19926;-83
2021/10/26 17:04:12;;;;;;;;;;;;;;;1.66;89.08;100443.06;4966772;28;19918;-80
2021/10/26 17:06:38;;;;;;;;;;;;;;;1.69;88.87;100453.53;4984633;28;19988;-83
2021/10/26 17:09:06;;;;;;;;;;;;;;;1.63;88.95;100449.16;4966051;28;19918;-81
2021/10/26 17:11:32;;;;;;;;;;;;;;;1.71;88.78;100448.28;4974671;28;19918;-82
2021/10/26 17:13:59;;;;;;;;;;;;;;;1.62;88.50;100455.22;4966739;28;19984;-82
2021/10/26 17:16:25;;;;;;;;;;;;;;;1.63;88.57;100459.59;4982888;28;19932;-82
2021/10/26 17:18:50;;;;;;;;;;;;;;;1.62;88.46;100468.28;4966415;28;20366;-84
2021/10/26 17:21:15;;;;;;;;;;;;;;;1.59;88.65;100468.28;4984004;28;19918;-83
2021/10/26 17:23:41;;;;;;;;;;;;;;;1.65;88.23;100477.88;4966836;28;19922;-81
2021/10/26 17:26:07;;;;;;;;;;;;;;;1.61;88.10;100481.34;4966185;28;19922;-82
2021/10/26 17:28:32;;;;;;;;;;;;;;;1.58;88.16;100471.78;4983603;28;20377;-82
2021/10/26 17:30:58;;;;;;;;;;;;;;;1.59;87.97;100475.25;4981786;28;20336;-81
2021/10/26 17:33:34;;;;;;;;;;;;;;;1.52;88.05;100474.34;4983986;28;19922;-82
2021/10/26 17:35:59;;;;;;;;;;;;;;;1.50;87.58;100483.03;4966995;28;19964;-82
2021/10/26 17:38:27;;;;;;;;;;;;;;;1.55;88.23;100478.72;4983276;28;19926;-82
2021/10/26 17:41:06;;;;;;;;;;;;;;;1.47;88.19;100481.28;4983272;28;19917;-80
2021/10/26 17:43:35;;;;;;;;;;;;;;;1.52;87.95;100476.97;4984435;28;19941;-80
2021/10/26 17:46:01;;;;;;;;;;;;;;;1.53;87.97;100477.81;4982080;28;19915;-81
2021/10/26 17:48:27;;;;;;;;;;;;;;;1.45;87.93;100477.78;4983380;28;20288;-82
2021/10/26 17:50:56;;;;;;;;;;;;;;;1.56;88.19;100477.84;4982687;28;20369;-84
2021/10/26 17:53:28;;;;;;;;;;;;;;;1.51;87.96;100483.03;4983167;28;19929;-81
2021/10/26 17:55:54;;;;;;;;;;;;;;;1.48;87.75;100480.41;4983603;28;19917;-81
2021/10/26 17:58:20;;;;;;;;;;;;;;;1.44;87.51;100483.88;4983427;28;19979;-80
2021/10/26 18:00:46;;;;;;;;;;;;;;;1.45;87.50;100490.84;4964249;28;19926;-82
2021/10/26 18:03:11;;;;;;;;;;;;;;;1.39;87.04;100486.47;4982894;28;20022;-83
2021/10/26 18:05:37;;;;;;;;;;;;;;;1.37;87.12;100497.75;4982704;28;20764;-83
2021/10/26 18:08:02;;;;;;;;;;;;;;;1.45;87.27;100491.72;4983368;28;19921;-81
2021/10/26 18:10:28;;;;;;;;;;;;;;;1.79;88.76;100497.13;4984469;28;19918;-82
2021/10/26 18:12:59;;;;;;;;;;;;;;;1.58;87.47;100497.00;4982743;28;20041;-82
2021/10/26 18:15:24;;;;;;;;;;;;;;;1.58;87.44;100500.50;4981405;28;19921;-83
2021/10/26 18:17:50;;;;;;;;;;;;;;;1.49;87.04;100503.06;4982831;28;20354;-81
2021/10/26 18:20:16;;;;;;;;;;;;;;;1.54;86.51;100505.69;4982596;28;19921;-82
2021/10/26 18:22:41;;;;;;;;;;;;;;;1.53;86.45;100504.84;4982994;28;20385;-82
2021/10/26 18:25:06;;;;;;;;;;;;;;;1.49;86.18;100504.81;4982532;28;20462;-83
2021/10/26 18:27:32;;;;;;;;;;;;;;;1.50;85.70;100511.75;4982897;28;20351;-82
2021/10/26 18:30:07;;;;;;;;;;;;;;;1.50;85.86;100514.38;4964438;28;19921;-81
2021/10/26 18:32:36;;;;;;;;;;;;;;;1.99;88.54;100520.72;4982585;28;19965;-81